createdAt,value
2023-02-03T00:01:56.732Z,5.00
2023-02-03T00:04:23.539Z,5.00
2023-02-03T00:06:51.106Z,4.20
2023-02-03T00:09:18.559Z,4.40
2023-02-03T00:11:45.311Z,4.40
2023-02-03T00:14:12.076Z,3.90
2023-02-03T00:16:38.913Z,4.00
2023-02-03T00:19:05.948Z,4.20
2023-02-03T00:21:33.419Z,4.30
2023-02-03T00:24:00.265Z,4.80
2023-02-03T00:26:28.992Z,4.00
2023-02-03T00:28:55.935Z,3.80
2023-02-03T00:31:25.426Z,4.00
2023-02-03T00:33:57.317Z,4.10
2023-02-03T00:36:24.603Z,4.00
2023-02-03T00:38:51.434Z,4.10
2023-02-03T00:41:18.864Z,4.10
2023-02-03T00:43:45.786Z,4.10
2023-02-03T00:46:14.413Z,4.30
2023-02-03T00:48:41.530Z,4.00
2023-02-03T00:51:08.914Z,4.00
2023-02-03T00:53:35.978Z,3.50
2023-02-03T00:56:03.189Z,3.90
2023-02-03T00:58:30.064Z,3.70
2023-02-03T01:00:58.190Z,3.80
2023-02-03T01:03:25.336Z,4.20
2023-02-03T01:05:52.337Z,3.50
2023-02-03T01:08:19.705Z,3.70
2023-02-03T01:10:46.593Z,3.80
2023-02-03T01:13:13.574Z,3.70
2023-02-03T01:15:46.274Z,3.50
2023-02-03T01:18:13.154Z,3.60
2023-02-03T01:20:39.979Z,3.70
2023-02-03T01:23:06.804Z,3.80
2023-02-03T01:25:35.709Z,3.40
2023-02-03T01:28:02.577Z,3.90
2023-02-03T01:30:29.685Z,3.60
2023-02-03T01:32:56.807Z,3.20
2023-02-03T01:35:23.733Z,3.50
2023-02-03T01:37:50.526Z,3.90
2023-02-03T01:40:17.381Z,3.20
2023-02-03T01:42:44.470Z,3.40
2023-02-03T01:45:15.132Z,3.20
2023-02-03T01:47:47.796Z,3.00
2023-02-03T01:50:18.948Z,3.40
2023-02-03T01:52:51.210Z,3.30
2023-02-03T01:55:21.846Z,3.60
2023-02-03T01:57:55.142Z,3.30
2023-02-03T02:00:22.863Z,2.80
2023-02-03T02:02:51.088Z,3.40
2023-02-03T02:05:26.828Z,2.70
2023-02-03T02:07:54.201Z,3.00
2023-02-03T02:10:21.084Z,3.00
2023-02-03T02:12:48.568Z,3.00
2023-02-03T02:15:15.810Z,2.60
2023-02-03T02:18:02.030Z,2.60
2023-02-03T02:20:53.385Z,2.60
2023-02-03T02:23:44.949Z,2.30
2023-02-03T02:26:38.803Z,2.40
2023-02-03T02:29:29.761Z,2.50
2023-02-03T02:32:02.257Z,2.80
2023-02-03T02:34:40.384Z,2.50
2023-02-03T02:37:16.006Z,2.60
2023-02-03T02:39:55.217Z,2.60
2023-02-03T02:42:27.818Z,2.50
2023-02-03T02:44:59.747Z,3.00
2023-02-03T02:47:27.394Z,2.40
2023-02-03T02:49:59.752Z,3.00
2023-02-03T02:52:30.236Z,2.80
2023-02-03T02:55:02.628Z,3.10
2023-02-03T02:57:31.082Z,3.10
2023-02-03T02:59:59.865Z,2.70
2023-02-03T03:02:35.140Z,3.10
2023-02-03T03:05:05.056Z,3.60
2023-02-03T03:07:37.475Z,3.20
2023-02-03T03:10:08.897Z,3.40
2023-02-03T03:12:40.521Z,3.50
2023-02-03T03:15:12.574Z,3.70
2023-02-03T03:17:43.211Z,3.50
2023-02-03T03:20:16.402Z,3.90
2023-02-03T03:22:46.853Z,4.00
2023-02-03T03:25:17.933Z,4.60
2023-02-03T03:27:49.741Z,4.90
2023-02-03T03:30:22.086Z,4.60
2023-02-03T03:32:49.262Z,5.00
2023-02-03T03:35:16.984Z,5.00
2023-02-03T03:37:50.949Z,5.30
2023-02-03T03:40:22.868Z,5.70
2023-02-03T03:42:56.233Z,5.50
2023-02-03T03:45:29.357Z,5.70
2023-02-03T03:48:00.620Z,5.70
2023-02-03T03:50:33.504Z,6.00
2023-02-03T03:53:04.174Z,5.90
2023-02-03T03:55:32.960Z,6.10
2023-02-03T03:58:05.225Z,5.80
2023-02-03T04:00:35.453Z,5.40
2023-02-03T04:03:07.072Z,5.50
2023-02-03T04:05:35.638Z,5.30
2023-02-03T04:08:03.780Z,5.20
2023-02-03T04:10:36.046Z,5.20
2023-02-03T04:13:03.843Z,5.10
2023-02-03T04:15:31.214Z,5.20
2023-02-03T04:17:58.095Z,5.70
2023-02-03T04:20:26.030Z,5.50
2023-02-03T04:22:53.702Z,5.10
2023-02-03T04:25:20.726Z,5.30
2023-02-03T04:27:48.261Z,5.20
2023-02-03T04:30:18.399Z,4.80
2023-02-03T04:32:45.463Z,5.30
2023-02-03T04:35:12.395Z,5.50
2023-02-03T04:37:39.339Z,5.50
2023-02-03T04:40:07.851Z,5.70
2023-02-03T04:42:34.977Z,6.30
2023-02-03T04:45:01.716Z,6.80
2023-02-03T04:47:28.551Z,7.30
2023-02-03T04:49:55.354Z,7.70
2023-02-03T04:52:22.050Z,6.80
2023-02-03T04:54:48.769Z,7.50
2023-02-03T04:57:15.822Z,7.00
2023-02-03T04:59:42.520Z,7.90
2023-02-03T05:02:09.386Z,7.80
2023-02-03T05:04:36.787Z,7.30
2023-02-03T05:07:03.767Z,6.90
2023-02-03T05:09:31.154Z,7.30
2023-02-03T05:11:58.066Z,7.00
2023-02-03T05:14:24.905Z,7.20
2023-02-03T05:16:51.739Z,6.90
2023-02-03T05:19:18.880Z,6.50
2023-02-03T05:21:45.624Z,6.50
2023-02-03T05:24:12.732Z,6.60
2023-02-03T05:26:39.571Z,6.30
2023-02-03T05:29:06.514Z,7.20
2023-02-03T05:31:33.840Z,6.60
2023-02-03T05:34:01.185Z,6.70
2023-02-03T05:36:27.917Z,7.20
2023-02-03T05:38:54.826Z,6.20
2023-02-03T05:41:39.165Z,6.70
2023-02-03T05:44:06.096Z,6.60
2023-02-03T05:46:33.194Z,6.70
2023-02-03T05:49:00.062Z,5.90
2023-02-03T05:51:26.828Z,6.10
2023-02-03T05:53:54.214Z,6.60
2023-02-03T05:56:21.009Z,6.40
2023-02-03T05:58:47.815Z,6.10
2023-02-03T06:01:14.731Z,6.50
2023-02-03T06:03:43.177Z,6.20
2023-02-03T06:06:11.457Z,6.20
2023-02-03T06:08:38.303Z,6.70
2023-02-03T06:11:05.239Z,6.40
2023-02-03T06:13:32.313Z,5.70
2023-02-03T06:15:59.067Z,6.60
2023-02-03T06:18:25.988Z,5.80
2023-02-03T06:20:53.073Z,6.40
2023-02-03T06:23:20.286Z,6.00
2023-02-03T06:25:48.599Z,6.00
2023-02-03T06:28:15.580Z,6.30
2023-02-03T06:30:42.609Z,6.60
2023-02-03T06:33:09.888Z,6.40
2023-02-03T06:35:36.613Z,6.60
2023-02-03T06:38:04.484Z,7.20
2023-02-03T06:40:31.963Z,7.60
2023-02-03T06:42:58.923Z,7.00
2023-02-03T06:45:26.145Z,7.10
2023-02-03T06:47:53.056Z,7.00
2023-02-03T06:50:20.130Z,6.40
2023-02-03T06:53:03.261Z,6.60
2023-02-03T06:55:30.375Z,7.20
2023-02-03T06:57:57.232Z,7.20
2023-02-03T07:00:25.511Z,7.80
2023-02-03T07:02:58.077Z,8.80
2023-02-03T07:05:28.002Z,8.00
2023-02-03T07:07:55.330Z,8.90
2023-02-03T07:10:22.949Z,8.80
2023-02-03T07:12:51.887Z,8.60
2023-02-03T07:15:19.350Z,9.10
2023-02-03T07:17:54.570Z,8.30
2023-02-03T07:20:24.053Z,9.00
2023-02-03T07:22:56.378Z,8.10
2023-02-03T07:25:25.274Z,8.60
2023-02-03T07:27:53.044Z,8.10
2023-02-03T07:30:20.465Z,8.60
2023-02-03T07:32:50.847Z,7.90
2023-02-03T07:35:18.888Z,8.20
2023-02-03T07:37:46.583Z,7.70
2023-02-03T07:40:15.106Z,8.00
2023-02-03T07:42:44.338Z,7.70
2023-02-03T07:45:13.791Z,7.10
2023-02-03T07:47:41.113Z,8.40
2023-02-03T07:50:08.871Z,7.10
2023-02-03T07:52:35.878Z,6.30
2023-02-03T07:55:02.649Z,5.80
2023-02-03T07:57:30.138Z,5.80
2023-02-03T07:59:57.425Z,6.10
2023-02-03T08:02:24.758Z,6.30
2023-02-03T08:04:52.040Z,5.60
2023-02-03T08:07:19.034Z,5.80
2023-02-03T08:09:46.472Z,6.30
2023-02-03T08:12:13.346Z,6.00
2023-02-03T08:14:40.347Z,6.30
2023-02-03T08:17:07.300Z,5.80
2023-02-03T08:19:34.264Z,5.20
2023-02-03T08:22:02.192Z,5.30
2023-02-03T08:24:29.358Z,5.50
2023-02-03T08:26:56.304Z,5.20
2023-02-03T08:29:23.678Z,6.10
2023-02-03T08:31:50.586Z,5.90
2023-02-03T08:34:17.617Z,5.50
2023-02-03T08:36:47.115Z,5.40
2023-02-03T08:39:14.028Z,5.00
2023-02-03T08:41:40.899Z,5.10
2023-02-03T08:44:08.510Z,5.00
2023-02-03T08:46:36.522Z,5.20
2023-02-03T08:49:03.920Z,5.10
2023-02-03T08:51:31.591Z,4.90
2023-02-03T08:53:58.421Z,5.20
2023-02-03T08:56:27.707Z,5.10
2023-02-03T08:58:56.056Z,4.80
2023-02-03T09:01:24.095Z,4.40
2023-02-03T09:03:51.011Z,4.60
2023-02-03T09:06:20.709Z,4.50
2023-02-03T09:08:49.339Z,4.20
2023-02-03T09:11:17.564Z,5.30
2023-02-03T09:13:46.171Z,4.50
2023-02-03T09:16:13.374Z,5.00
2023-02-03T09:18:40.310Z,4.70
2023-02-03T09:21:09.002Z,3.90
2023-02-03T09:23:36.256Z,3.70
2023-02-03T09:26:05.959Z,4.10
2023-02-03T09:28:33.570Z,4.20
2023-02-03T09:31:03.815Z,3.80
2023-02-03T09:33:30.778Z,4.00
2023-02-03T09:35:58.961Z,3.90
2023-02-03T09:38:26.827Z,4.10
2023-02-03T09:41:10.652Z,4.10
2023-02-03T09:43:43.221Z,3.70
2023-02-03T09:46:13.790Z,3.60
2023-02-03T09:48:48.374Z,3.30
2023-02-03T09:51:23.575Z,3.80
2023-02-03T09:53:58.661Z,2.90
2023-02-03T09:56:32.816Z,3.30
2023-02-03T09:59:01.583Z,2.90
2023-02-03T10:01:35.943Z,3.30
2023-02-03T10:04:07.623Z,3.30
2023-02-03T10:06:38.039Z,2.70
2023-02-03T10:09:19.796Z,2.80
2023-02-03T10:12:07.617Z,2.90
2023-02-03T10:14:47.887Z,3.20
2023-02-03T10:17:31.434Z,2.80
2023-02-03T10:20:04.731Z,2.90
2023-02-03T10:22:35.259Z,2.60
2023-02-03T10:25:07.453Z,3.20
2023-02-03T10:27:36.432Z,2.80
2023-02-03T10:30:08.241Z,2.60
2023-02-03T10:32:37.829Z,2.80
2023-02-03T10:35:07.080Z,2.90
2023-02-03T10:37:43.106Z,2.90
2023-02-03T10:40:16.181Z,3.30
2023-02-03T10:43:02.900Z,2.70
2023-02-03T10:45:30.444Z,2.50
2023-02-03T10:47:59.081Z,3.00
2023-02-03T10:50:31.994Z,2.80
2023-02-03T10:53:24.673Z,2.30
2023-02-03T10:56:06.961Z,2.30
2023-02-03T10:58:35.291Z,2.60
2023-02-03T11:01:10.902Z,2.60
2023-02-03T11:03:39.283Z,2.60
2023-02-03T11:06:12.666Z,3.00
2023-02-03T11:08:44.062Z,3.00
2023-02-03T11:11:14.698Z,3.00
2023-02-03T11:13:42.273Z,2.70
2023-02-03T11:16:15.969Z,3.10
2023-02-03T11:18:47.896Z,3.20
2023-02-03T11:21:19.180Z,3.90
2023-02-03T11:23:54.309Z,3.10
2023-02-03T11:26:27.552Z,3.50
2023-02-03T11:28:58.405Z,3.10
2023-02-03T11:31:27.998Z,2.90
2023-02-03T11:34:21.043Z,3.60
2023-02-03T11:36:48.123Z,3.10
2023-02-03T11:39:22.243Z,3.20
2023-02-03T11:41:49.812Z,2.80
2023-02-03T11:44:22.073Z,3.20
2023-02-03T11:46:51.534Z,3.10
2023-02-03T11:49:39.629Z,3.10
2023-02-03T11:52:17.735Z,3.30
2023-02-03T11:54:55.474Z,3.30
2023-02-03T11:57:35.188Z,3.20
2023-02-03T12:00:17.080Z,3.30
2023-02-03T12:03:23.845Z,3.40
2023-02-03T12:06:10.560Z,3.70
2023-02-03T12:08:53.709Z,3.60
2023-02-03T12:11:32.229Z,3.40
2023-02-03T12:14:32.846Z,2.90
2023-02-03T12:17:28.007Z,3.20
2023-02-03T12:20:08.182Z,3.00
2023-02-03T12:22:45.211Z,3.40
2023-02-03T12:25:27.527Z,3.30
2023-02-03T12:28:05.306Z,3.80
2023-02-03T12:30:36.438Z,3.40
2023-02-03T12:33:13.022Z,4.00
2023-02-03T12:38:18.334Z,3.50
2023-02-03T12:40:52.140Z,3.70
2023-02-03T12:43:30.050Z,3.80
2023-02-03T12:46:02.781Z,3.30
2023-02-03T12:48:34.782Z,4.00
2023-02-03T12:51:06.557Z,4.00
2023-02-03T12:53:40.908Z,3.80
2023-02-03T12:56:12.949Z,3.80
2023-02-03T12:58:45.330Z,3.80
2023-02-03T13:01:18.951Z,4.20
2023-02-03T13:03:52.536Z,4.00
2023-02-03T13:06:25.833Z,4.20
2023-02-03T13:08:59.939Z,4.40
2023-02-03T13:11:35.150Z,4.70
2023-02-03T13:14:07.277Z,4.70
2023-02-03T13:16:39.238Z,5.00
2023-02-03T13:19:14.179Z,4.70
2023-02-03T13:21:43.168Z,4.60
2023-02-03T13:24:12.355Z,4.50
2023-02-03T13:26:59.457Z,5.10
2023-02-03T13:29:51.131Z,4.90
2023-02-03T13:32:32.561Z,5.70
2023-02-03T13:35:34.160Z,5.40
2023-02-03T13:38:23.640Z,6.00
2023-02-03T13:41:02.246Z,6.30
2023-02-03T13:43:38.782Z,7.20
2023-02-03T13:46:09.446Z,7.60
2023-02-03T13:48:38.012Z,7.00
2023-02-03T13:51:14.792Z,7.70
2023-02-03T13:53:45.475Z,7.60
2023-02-03T13:56:22.055Z,7.50
2023-02-03T13:59:02.787Z,8.60
2023-02-03T14:01:40.024Z,8.60
2023-02-03T14:04:09.697Z,8.30
2023-02-03T14:07:05.498Z,8.50
2023-02-03T14:09:47.040Z,8.20
2023-02-03T14:12:32.122Z,9.40
2023-02-03T14:15:06.741Z,9.70
2023-02-03T14:18:29.002Z,10.30
2023-02-03T14:21:11.076Z,9.80
2023-02-03T14:23:46.978Z,9.80
2023-02-03T14:26:24.904Z,8.90
2023-02-03T14:28:54.087Z,10.40
2023-02-03T14:31:28.624Z,10.80
2023-02-03T14:34:13.412Z,10.80
2023-02-03T14:36:48.895Z,10.90
2023-02-03T14:39:58.760Z,11.10
2023-02-03T14:43:08.559Z,11.60
2023-02-03T14:46:19.487Z,10.10
2023-02-03T14:49:04.654Z,10.40
2023-02-03T14:51:48.987Z,11.30
2023-02-03T14:54:29.232Z,11.20
2023-02-03T14:57:18.447Z,12.00
2023-02-03T14:59:49.719Z,11.80
2023-02-03T15:02:20.663Z,11.60
2023-02-03T15:04:50.921Z,12.40
2023-02-03T15:07:47.307Z,12.40
2023-02-03T15:10:19.896Z,12.70
2023-02-03T15:12:51.920Z,12.00
2023-02-03T15:15:31.084Z,12.90
2023-02-03T15:18:01.202Z,12.20
2023-02-03T15:20:38.795Z,12.30
2023-02-03T15:23:18.375Z,11.40
2023-02-03T15:25:45.511Z,12.20
2023-02-03T15:28:20.945Z,11.70
2023-02-03T15:30:52.681Z,11.20
2023-02-03T15:33:22.758Z,12.40
2023-02-03T15:35:56.240Z,12.10
2023-02-03T15:38:28.441Z,11.70
2023-02-03T15:40:59.302Z,11.50
2023-02-03T15:43:31.727Z,10.50
2023-02-03T15:46:06.689Z,10.80
2023-02-03T15:48:38.330Z,10.50
2023-02-03T15:51:10.780Z,10.30
2023-02-03T15:53:47.767Z,11.00
2023-02-03T15:56:23.216Z,10.30
2023-02-03T15:58:50.991Z,10.40
2023-02-03T16:01:26.247Z,11.50
2023-02-03T16:03:54.288Z,12.20
2023-02-03T16:06:27.373Z,11.70
2023-02-03T16:08:55.053Z,12.30
2023-02-03T16:11:34.205Z,11.90
2023-02-03T16:14:03.453Z,11.10
2023-02-03T16:16:34.263Z,10.80
2023-02-03T16:19:03.972Z,10.90
2023-02-03T16:21:34.746Z,10.90
2023-02-03T16:24:02.335Z,11.10
2023-02-03T16:26:30.908Z,10.80
2023-02-03T16:29:31.878Z,11.40
2023-02-03T16:32:16.932Z,11.90
2023-02-03T16:35:01.868Z,12.10
2023-02-03T16:37:48.699Z,12.20
2023-02-03T16:43:17.790Z,12.30
2023-02-03T16:46:02.141Z,11.40
2023-02-03T16:48:46.680Z,11.60
2023-02-03T16:51:17.476Z,12.00
2023-02-03T16:53:48.422Z,11.30
2023-02-03T16:56:17.885Z,11.90
2023-02-03T16:58:45.124Z,12.50
2023-02-03T17:01:13.220Z,12.00
2023-02-03T17:03:40.718Z,12.10
2023-02-03T17:06:11.114Z,12.00
2023-02-03T17:08:40.133Z,13.00
2023-02-03T17:11:09.841Z,12.50
2023-02-03T17:13:37.886Z,12.70
2023-02-03T17:16:12.542Z,11.90
2023-02-03T17:18:39.703Z,12.90
2023-02-03T17:21:11.713Z,13.00
2023-02-03T17:23:38.882Z,13.70
2023-02-03T17:26:06.586Z,13.20
2023-02-03T17:28:34.131Z,13.30
2023-02-03T17:31:03.055Z,11.80
2023-02-03T17:33:31.191Z,12.30
2023-02-03T17:36:07.451Z,12.40
2023-02-03T17:55:05.346Z,11.90
2023-02-03T17:57:34.553Z,11.90
2023-02-03T18:00:01.566Z,12.60
2023-02-03T18:02:28.645Z,12.50
2023-02-03T18:04:56.002Z,12.40
2023-02-03T18:07:22.844Z,13.10
2023-02-03T18:09:49.687Z,13.00
2023-02-03T18:12:16.766Z,13.10
2023-02-03T18:14:43.536Z,12.40
2023-02-03T18:17:11.128Z,13.90
2023-02-03T18:19:38.320Z,12.70
2023-02-03T18:22:05.793Z,13.70
2023-02-03T18:24:33.011Z,13.40
2023-02-03T18:27:00.765Z,13.50
2023-02-03T18:29:27.824Z,13.20
2023-02-03T18:31:55.351Z,14.70
2023-02-03T18:34:22.235Z,14.70
2023-02-03T18:36:49.059Z,14.30
2023-02-03T18:39:16.515Z,14.40
2023-02-03T18:41:43.299Z,14.40
2023-02-03T18:44:10.195Z,14.60
2023-02-03T18:46:37.099Z,15.00
2023-02-03T18:49:03.936Z,16.20
2023-02-03T18:51:30.935Z,17.00
2023-02-03T18:54:04.331Z,17.30
2023-02-03T18:56:35.569Z,20.30
2023-02-03T18:59:02.687Z,20.50
2023-02-03T19:01:31.285Z,21.50
2023-02-03T19:04:00.248Z,23.60
2023-02-03T19:06:30.086Z,24.40
2023-02-03T19:08:56.952Z,25.50
2023-02-03T19:11:24.117Z,25.60
2023-02-03T19:13:51.100Z,24.50
2023-02-03T19:16:18.986Z,25.10
2023-02-03T19:18:46.179Z,26.10
2023-02-03T19:21:14.211Z,26.20
2023-02-03T19:23:41.365Z,25.40
2023-02-03T19:26:08.436Z,24.80
2023-02-03T19:28:35.781Z,25.80
2023-02-03T19:31:08.798Z,24.50
2023-02-03T19:33:36.139Z,28.50
2023-02-03T19:36:02.927Z,24.10
2023-02-03T19:38:29.763Z,23.60
2023-02-03T19:40:56.803Z,21.80
2023-02-03T19:43:24.852Z,20.90
2023-02-03T19:45:52.043Z,21.10
2023-02-03T19:48:18.885Z,20.80
2023-02-03T19:50:47.411Z,19.90
2023-02-03T19:53:15.778Z,19.40
2023-02-03T19:55:44.555Z,19.10
2023-02-03T19:58:11.954Z,18.40
2023-02-03T20:00:39.316Z,18.20
2023-02-03T20:03:06.413Z,18.50
2023-02-03T20:05:33.858Z,20.00
2023-02-03T20:08:00.948Z,17.80
2023-02-03T20:10:28.416Z,17.80
2023-02-03T20:12:56.054Z,19.70
2023-02-03T20:15:23.016Z,18.50
2023-02-03T20:17:49.834Z,16.90
2023-02-03T20:20:18.600Z,17.80
2023-02-03T20:22:46.682Z,17.80
2023-02-03T20:25:13.536Z,17.10
2023-02-03T20:27:40.504Z,18.00
2023-02-03T20:30:09.037Z,17.40
2023-02-03T20:32:36.951Z,17.30
2023-02-03T20:35:05.043Z,18.50
2023-02-03T20:37:32.212Z,17.40
2023-02-03T20:39:58.986Z,18.00
2023-02-03T20:42:25.804Z,17.00
2023-02-03T20:44:52.758Z,19.90
2023-02-03T20:47:22.277Z,17.40
2023-02-03T20:49:49.771Z,18.50
2023-02-03T20:52:17.967Z,18.20
2023-02-03T20:54:44.890Z,18.70
2023-02-03T20:57:17.257Z,19.20
2023-02-03T20:59:45.609Z,18.20
2023-02-03T21:02:22.879Z,18.80
2023-02-03T21:05:00.762Z,18.70
2023-02-03T21:07:30.750Z,18.60
2023-02-03T21:09:58.271Z,18.70
2023-02-03T21:12:25.338Z,19.30
2023-02-03T21:14:53.560Z,18.90
2023-02-03T21:17:23.315Z,18.80
2023-02-03T21:19:50.605Z,18.40
2023-02-03T21:22:21.591Z,18.80
2023-02-03T21:24:52.921Z,18.80
2023-02-03T21:27:29.703Z,19.70
2023-02-03T21:29:57.640Z,20.80
2023-02-03T21:32:26.704Z,20.80
2023-02-03T21:34:53.679Z,20.10
2023-02-03T21:37:42.561Z,20.30
2023-02-03T21:40:30.221Z,19.90
2023-02-03T21:42:58.372Z,19.30
2023-02-03T21:45:38.953Z,20.50
2023-02-03T21:48:26.189Z,19.80
2023-02-03T21:50:53.493Z,19.00
2023-02-03T21:53:26.751Z,20.00
2023-02-03T21:55:53.704Z,19.30
2023-02-03T21:58:28.950Z,19.50
2023-02-03T22:00:57.661Z,20.20
2023-02-03T22:03:36.479Z,20.20
2023-02-03T22:06:17.693Z,19.20
2023-02-03T22:08:46.402Z,19.90
2023-02-03T22:11:13.865Z,20.50
2023-02-03T22:13:40.827Z,19.60
2023-02-03T22:16:08.576Z,18.90
2023-02-03T22:18:35.443Z,19.40
2023-02-03T22:21:03.303Z,20.50
2023-02-03T22:23:30.296Z,20.50
2023-02-03T22:25:57.138Z,21.20
2023-02-03T22:28:24.057Z,22.30
2023-02-03T22:30:51.207Z,23.30
2023-02-03T22:33:18.205Z,22.30
2023-02-03T22:35:45.094Z,22.80
2023-02-03T22:38:12.040Z,22.20
2023-02-03T22:40:38.856Z,22.50
2023-02-03T22:43:05.652Z,20.30
2023-02-03T22:45:32.583Z,19.60
2023-02-03T22:48:00.448Z,18.90
2023-02-03T22:50:35.591Z,19.20
2023-02-03T22:53:04.377Z,17.70
2023-02-03T22:55:31.928Z,17.70
2023-02-03T22:57:59.278Z,17.40
2023-02-03T23:00:28.278Z,16.50
2023-02-03T23:02:55.641Z,15.80
2023-02-03T23:05:23.564Z,15.90
2023-02-03T23:07:51.031Z,15.40
2023-02-03T23:10:20.378Z,16.20
2023-02-03T23:12:47.204Z,15.80
2023-02-03T23:15:14.924Z,16.30
2023-02-03T23:17:42.083Z,15.90
2023-02-03T23:20:12.701Z,16.20
2023-02-03T23:22:39.767Z,16.90
2023-02-03T23:25:07.626Z,15.10
2023-02-03T23:27:34.666Z,16.10
2023-02-03T23:30:01.700Z,17.00
2023-02-03T23:32:29.155Z,16.70
2023-02-03T23:35:13.978Z,16.60
2023-02-03T23:37:41.108Z,16.80
2023-02-03T23:40:09.728Z,17.30
2023-02-03T23:42:36.993Z,16.00
2023-02-03T23:45:07.768Z,15.40
2023-02-03T23:47:34.693Z,15.20
2023-02-03T23:50:01.456Z,14.80
2023-02-03T23:52:35.705Z,13.60
2023-02-03T23:55:02.922Z,13.50
2023-02-03T23:57:29.772Z,14.10
2023-02-03T23:59:56.537Z,13.50
